Provo, UT (84601)

12:41 PM MDT on October 25, 2014 (GMT -0600)
Sunset | Change Station
CLOSE
Current Station
Personal Weather Station
Location: Provo, UT
Elevation: 4505 ft
Nearby Weather Stations

Elev 4505 ft 40.23 °N, 111.70 °W | Updated 2 seconds ago

Clear
Clear
74.8 °F
Feels Like 77 °F
N
3.5
Wind Variable Wind from SE
Gusts 3.5 mph

Today
High -- | Low -- °F
--% Chance of Precip.
Yesterday
High -- | Low -- °F
Precip. -- in
7:48 AM 6:32 PM
Waxing Crescent, 4% visible
Pressure 30.11 in
Visibility 15.0 miles
Clouds Clear
Heat Index 77 °F
Dew Point 39 °F
Humidity 27%
Rainfall 0.00 in
Snow Depth 0 in
UV 4 out of 12
Pollen 2.00 out of 12
Air Quality Not available.
Flu Activity Sporadic
METAR KPVU 251755Z 21005KT 15SM SKC 22/03 A3011

More Conditions Fewer Conditions

Pressure 30.11 in
Visibility 15.0 miles
Clouds Clear
Heat Index 77 °F
Dew Point 39 °F
Humidity 27%
Rainfall 0.00 in
Snow Depth 0 in
UV 4 out of 12
Pollen 2.00 out of 12
Air Quality Not available.
Flu Activity Sporadic
METAR KPVU 251755Z 21005KT 15SM SKC 22/03 A3011

More Conditions Fewer Conditions

10-Day Weather Forecast

Almanac

Astronomy

Oct. 25, 2014 Rise Set
Actual Time 7:48 AM MDT 6:32 PM MDT
Civil Twilight 7:20 AM MDT 7:00 PM MDT
Nautical Twilight 6:48 AM MDT 7:32 PM MDT
Astronomical Twilight 6:17 AM MDT 8:03 PM MDT
Moon 9:31 AM MDT 7:58 PM MDT
Length of Visible Light 11h 39m
Length of Day
10h 44m
Tomorrow will be 2m 26s shorter.
Waxing Crescent, 4% of the Moon is Illuminated
Today
Waxing Crescent
Oct 30
First Quarter
Nov 6
Full
Nov 14
Last Quarter
Nov 22
New

Today's Extremes

State Highs State Lows

Community

WunderPhotos

Upload Photos

1,764,954 photos uploaded!

Nearby

Snow Depth

Station Depth Elevation
Cascade Mountain 0 in 7768 ft
Daniels-Strawberry 0 in 8000 ft
Strawberry Divide 0 in 8400 ft
Clear Creek #2 0 in 8300 ft
Dry Fork 1 in 7160 ft

Earthquake Activity

City Distance Mag. Time & Date
No recent earthquake activity has been reported nearby.
Minimum magnitude displayed is 2.5.

Coastal Water Temperatures

Place Temperature
No Stations Reporting

Nearby Weather Stations